Time;durP1;ratioP1;P1;durP2;ratioP2;P2;SDS_P1;SDS_P2;PMS_P1;PMS_P2;Temp;Humidity;BMP_temperature;BMP_pressure;BME280_temperature;BME280_humidity;BME280_pressure;Samples;Min_cycle;Max_cycle;Signal;HPM_P1;HPM_P2
2023/12/02 00:01:46;;;;;;;45.57;22.10;;;-0.70;99.90;;;;;;5081762;27;20040;-81
2023/12/02 00:04:12;;;;;;;45.60;21.87;;;-0.70;99.90;;;;;;5068197;27;20034;-80
2023/12/02 00:06:39;;;;;;;47.77;23.10;;;-0.70;99.90;;;;;;5068811;28;20053;-78
2023/12/02 00:09:05;;;;;;;44.57;22.73;;;-0.70;99.90;;;;;;5083820;27;20397;-78
2023/12/02 00:11:32;;;;;;;49.40;23.90;;;-0.70;99.90;;;;;;5079665;27;20055;-80
2023/12/02 00:13:58;;;;;;;47.73;23.07;;;-0.70;99.90;;;;;;5111258;27;20024;-81
2023/12/02 00:16:25;;;;;;;49.23;22.17;;;-0.80;99.90;;;;;;5102483;27;20042;-77
2023/12/02 00:18:51;;;;;;;46.97;22.37;;;-0.80;99.90;;;;;;5067143;27;20406;-80
2023/12/02 00:21:17;;;;;;;45.30;21.37;;;-0.80;99.90;;;;;;5116851;27;20143;-80
2023/12/02 00:23:44;;;;;;;45.37;21.80;;;-0.80;99.90;;;;;;5071732;27;20043;-79
2023/12/02 00:26:10;;;;;;;44.03;22.23;;;-0.80;99.90;;;;;;5074060;27;20036;-79
2023/12/02 00:28:38;;;;;;;48.50;22.37;;;-0.80;99.90;;;;;;5086708;27;20031;-77
2023/12/02 00:31:05;;;;;;;49.90;23.67;;;-0.80;99.90;;;;;;5101751;27;20039;-81
2023/12/02 00:33:31;;;;;;;47.17;23.17;;;-0.80;99.90;;;;;;5071312;27;20513;-82
2023/12/02 00:35:57;;;;;;;48.83;22.83;;;-0.80;99.90;;;;;;5069155;27;20489;-77
2023/12/02 00:38:24;;;;;;;51.10;25.03;;;-0.80;99.90;;;;;;5102433;27;20034;-83
2023/12/02 00:40:50;;;;;;;44.60;22.07;;;-0.90;99.90;;;;;;5097069;27;20044;-82
2023/12/02 00:43:16;;;;;;;46.67;21.43;;;-0.90;99.90;;;;;;5114120;27;20028;-80
2023/12/02 00:45:42;;;;;;;44.50;21.73;;;-0.90;99.90;;;;;;5115180;27;20043;-79
2023/12/02 00:48:09;;;;;;;45.20;23.00;;;-0.80;99.90;;;;;;5079160;27;20075;-80
2023/12/02 00:50:36;;;;;;;50.73;24.63;;;-0.80;99.90;;;;;;5085007;27;20147;-80
2023/12/02 00:53:02;;;;;;;47.00;22.97;;;-0.80;99.90;;;;;;5075688;27;20042;-79
2023/12/02 00:55:29;;;;;;;46.67;23.93;;;-0.80;99.90;;;;;;5082447;28;20039;-80
2023/12/02 00:57:55;;;;;;;48.10;23.27;;;-0.90;99.90;;;;;;5064645;27;20039;-82
2023/12/02 01:00:22;;;;;;;45.23;21.90;;;-0.90;99.90;;;;;;5080551;27;20036;-80
2023/12/02 01:02:48;;;;;;;42.03;19.97;;;-0.90;99.90;;;;;;5045072;27;20039;-78
2023/12/02 01:05:15;;;;;;;47.93;21.60;;;-0.90;99.90;;;;;;5103761;27;20041;-77
2023/12/02 01:07:41;;;;;;;45.70;22.30;;;-0.90;99.90;;;;;;5100264;27;20030;-78
2023/12/02 01:10:11;;;;;;;48.80;24.23;;;-0.90;99.90;;;;;;5064451;27;20495;-81
2023/12/02 01:12:41;;;;;;;46.60;22.50;;;-0.90;99.90;;;;;;5054463;27;20031;-77
2023/12/02 01:15:07;;;;;;;44.87;22.27;;;-0.90;99.90;;;;;;5102924;27;20036;-80
2023/12/02 01:17:34;;;;;;;49.77;24.00;;;-1.00;99.90;;;;;;5078547;28;20257;-80
2023/12/02 01:20:00;;;;;;;47.07;23.60;;;-1.00;99.90;;;;;;5095869;27;20035;-80
2023/12/02 01:22:27;;;;;;;46.10;23.33;;;-0.90;99.90;;;;;;5101516;27;20024;-79
2023/12/02 01:24:53;;;;;;;51.83;23.57;;;-1.00;99.90;;;;;;5110236;27;20031;-75
2023/12/02 01:27:19;;;;;;;46.70;21.53;;;-1.00;99.90;;;;;;5063526;27;20483;-80
2023/12/02 01:29:46;;;;;;;44.80;22.23;;;-1.00;99.90;;;;;;5102176;27;20402;-75
2023/12/02 01:32:12;;;;;;;44.57;21.30;;;-1.00;99.90;;;;;;5107177;27;20027;-79
2023/12/02 01:34:38;;;;;;;42.00;19.07;;;-1.00;99.90;;;;;;5056771;28;20031;-78
2023/12/02 01:37:05;;;;;;;48.37;22.43;;;-1.00;99.90;;;;;;5070068;27;20426;-80
2023/12/02 01:39:31;;;;;;;44.83;19.33;;;-1.00;99.90;;;;;;5079758;28;20036;-74
2023/12/02 01:41:57;;;;;;;41.93;20.77;;;-1.00;99.90;;;;;;5066383;27;20038;-77
2023/12/02 01:44:23;;;;;;;39.27;19.90;;;-1.00;99.90;;;;;;5081391;28;20039;-77
2023/12/02 01:46:50;;;;;;;43.20;22.40;;;-1.00;99.90;;;;;;5050420;28;20572;-79
2023/12/02 01:49:18;;;;;;;48.67;23.60;;;-1.00;99.90;;;;;;5113188;27;20335;-72
2023/12/02 01:51:44;;;;;;;47.47;23.60;;;-1.00;99.90;;;;;;5096306;27;20043;-76
2023/12/02 01:54:11;;;;;;;47.47;23.27;;;-1.10;99.90;;;;;;5085136;28;20531;-80
2023/12/02 01:56:37;;;;;;;46.53;20.37;;;-1.10;99.90;;;;;;5068842;28;20031;-74
2023/12/02 01:59:15;;;;;;;46.03;22.10;;;-1.10;99.90;;;;;;5083832;28;20394;-80
2023/12/02 02:01:41;;;;;;;44.77;21.70;;;-1.10;99.90;;;;;;5060135;28;20036;-80
2023/12/02 02:04:08;;;;;;;43.40;20.70;;;-1.10;99.90;;;;;;5087501;28;20039;-77
2023/12/02 02:06:34;;;;;;;42.30;20.17;;;-1.10;99.90;;;;;;5083041;28;20035;-80
2023/12/02 02:09:00;;;;;;;44.40;20.40;;;-1.10;99.90;;;;;;5110137;27;20063;-79
2023/12/02 02:11:27;;;;;;;42.97;20.13;;;-1.00;99.90;;;;;;5105189;27;20024;-81
2023/12/02 02:13:53;;;;;;;47.57;21.23;;;-1.00;99.90;;;;;;5075000;27;20047;-81
2023/12/02 02:16:19;;;;;;;46.10;21.03;;;-1.00;99.90;;;;;;5085519;27;20429;-79
2023/12/02 02:18:45;;;;;;;42.73;20.43;;;-1.00;99.90;;;;;;5103567;27;21567;-80
2023/12/02 02:21:16;;;;;;;41.47;19.70;;;-1.00;99.90;;;;;;5069933;27;20020;-80
2023/12/02 02:23:43;;;;;;;38.83;17.90;;;-1.00;99.90;;;;;;5076685;27;20039;-74
2023/12/02 02:26:09;;;;;;;44.87;19.33;;;-1.00;99.90;;;;;;5084719;27;20028;-77
2023/12/02 02:28:36;;;;;;;42.77;20.33;;;-0.90;99.90;;;;;;5085153;27;20486;-77
2023/12/02 02:31:02;;;;;;;40.90;19.63;;;-1.00;99.90;;;;;;5078573;27;20044;-78
2023/12/02 02:33:31;;;;;;;45.10;20.53;;;-0.90;99.90;;;;;;5089205;27;20566;-81
2023/12/02 02:35:58;;;;;;;43.47;20.03;;;-0.90;99.90;;;;;;5094455;27;20474;-79
2023/12/02 02:38:25;;;;;;;40.60;18.33;;;-0.90;99.90;;;;;;5105704;27;20490;-76
2023/12/02 02:40:51;;;;;;;46.37;19.90;;;-0.90;99.90;;;;;;5087069;27;20070;-74
2023/12/02 02:43:17;;;;;;;40.67;18.97;;;-0.90;99.90;;;;;;5074609;27;20462;-80
2023/12/02 02:45:43;;;;;;;41.90;18.73;;;-0.90;99.90;;;;;;5084669;28;20042;-81
2023/12/02 02:48:10;;;;;;;38.10;18.97;;;-0.90;99.90;;;;;;5083292;27;20032;-80
2023/12/02 02:50:36;;;;;;;40.47;18.53;;;-0.80;99.90;;;;;;5067473;28;20039;-81
2023/12/02 02:53:02;;;;;;;44.80;20.87;;;-0.90;99.90;;;;;;5101881;27;20035;-78
2023/12/02 02:55:29;;;;;;;40.83;18.80;;;-0.90;99.90;;;;;;5079231;28;20035;-82
2023/12/02 02:57:55;;;;;;;39.77;19.60;;;-0.90;99.90;;;;;;5054148;28;20040;-82
2023/12/02 03:00:23;;;;;;;46.73;21.30;;;-0.90;99.90;;;;;;5102437;27;20402;-75
2023/12/02 03:02:49;;;;;;;40.87;21.20;;;-0.90;99.90;;;;;;5075435;27;20026;-81
2023/12/02 03:05:16;;;;;;;43.00;20.73;;;-0.90;99.90;;;;;;5119827;27;20330;-81
2023/12/02 03:07:42;;;;;;;41.00;19.33;;;-0.80;99.90;;;;;;5090068;27;20477;-81
2023/12/02 03:10:08;;;;;;;41.80;21.47;;;-0.80;99.90;;;;;;5079288;27;20035;-80
2023/12/02 03:12:35;;;;;;;43.53;20.57;;;-0.80;99.90;;;;;;5086612;27;20034;-81
2023/12/02 03:15:02;;;;;;;42.87;20.87;;;-0.80;99.90;;;;;;5101910;27;20519;-77
2023/12/02 03:17:28;;;;;;;43.17;20.00;;;-0.80;99.90;;;;;;5083902;28;20038;-80
2023/12/02 03:19:54;;;;;;;40.37;19.77;;;-0.80;99.90;;;;;;5085262;27;20307;-79
2023/12/02 03:22:21;;;;;;;47.80;22.03;;;-0.80;99.90;;;;;;5080175;27;20031;-78
2023/12/02 03:24:47;;;;;;;45.47;21.47;;;-0.70;99.90;;;;;;5094409;27;20051;-79
2023/12/02 03:27:13;;;;;;;44.33;20.97;;;-0.70;99.90;;;;;;5085751;27;20035;-81
2023/12/02 03:29:40;;;;;;;46.43;21.13;;;-0.70;99.90;;;;;;5081669;28;20513;-81
2023/12/02 03:32:06;;;;;;;48.27;22.60;;;-0.70;99.90;;;;;;5088960;28;20492;-74
2023/12/02 03:34:32;;;;;;;41.50;19.90;;;-0.70;99.90;;;;;;5073822;27;20027;-80
2023/12/02 03:36:58;;;;;;;48.07;22.30;;;-0.70;99.90;;;;;;5089058;27;20035;-82
2023/12/02 03:39:25;;;;;;;40.77;19.40;;;-0.70;99.90;;;;;;5070625;27;20034;-79
2023/12/02 03:41:51;;;;;;;42.83;20.13;;;-0.70;99.90;;;;;;5081717;27;20031;-81
2023/12/02 03:44:17;;;;;;;40.97;20.30;;;-0.60;99.90;;;;;;5069693;27;20032;-80
2023/12/02 03:46:44;;;;;;;39.97;19.77;;;-0.60;99.90;;;;;;5085890;27;20030;-81
2023/12/02 03:49:10;;;;;;;43.17;19.50;;;-0.60;99.90;;;;;;5081816;27;20390;-81
2023/12/02 03:51:36;;;;;;;40.30;18.73;;;-0.70;99.90;;;;;;5078194;27;20042;-80
2023/12/02 03:54:03;;;;;;;38.73;17.27;;;-0.70;99.90;;;;;;5080703;28;20057;-79
2023/12/02 03:56:29;;;;;;;36.20;17.33;;;-0.60;99.90;;;;;;5067171;27;20047;-80
2023/12/02 03:58:55;;;;;;;38.43;18.33;;;-0.60;99.90;;;;;;5114085;27;20039;-80
2023/12/02 04:01:22;;;;;;;40.97;19.60;;;-0.70;99.90;;;;;;5099486;27;20016;-79
2023/12/02 04:03:48;;;;;;;41.17;20.77;;;-0.70;99.90;;;;;;5085887;27;20039;-79
2023/12/02 04:06:15;;;;;;;42.37;19.80;;;-0.60;99.90;;;;;;5082708;28;20053;-79
2023/12/02 04:08:41;;;;;;;42.77;20.10;;;-0.60;99.90;;;;;;5057240;27;20070;-79
2023/12/02 04:11:11;;;;;;;36.73;17.53;;;-0.60;99.90;;;;;;5080778;27;20046;-76
2023/12/02 04:13:37;;;;;;;39.77;18.70;;;-0.60;99.90;;;;;;5082722;28;20042;-78
2023/12/02 04:16:05;;;;;;;42.97;20.70;;;-0.70;99.90;;;;;;5085220;27;20420;-78
2023/12/02 04:18:33;;;;;;;41.43;19.13;;;-0.70;99.90;;;;;;5081402;28;20024;-81
2023/12/02 04:21:00;;;;;;;37.63;17.47;;;-0.80;99.90;;;;;;5095021;27;20062;-77
2023/12/02 04:23:26;;;;;;;42.23;20.33;;;-0.80;99.90;;;;;;5051625;27;20035;-77
2023/12/02 04:25:52;;;;;;;43.73;19.23;;;-0.90;99.90;;;;;;5075438;28;20032;-80
2023/12/02 04:28:19;;;;;;;38.93;17.73;;;-0.90;99.90;;;;;;5071042;28;20031;-81
2023/12/02 04:30:45;;;;;;;39.07;18.83;;;-0.90;99.90;;;;;;5085158;27;20274;-75
2023/12/02 04:33:11;;;;;;;44.60;19.83;;;-0.90;99.90;;;;;;5079326;27;20437;-79
2023/12/02 04:35:38;;;;;;;36.50;17.37;;;-0.90;99.90;;;;;;5067722;28;20027;-80
2023/12/02 04:38:04;;;;;;;42.20;19.90;;;-0.90;99.90;;;;;;5081277;27;20043;-81
2023/12/02 04:40:33;;;;;;;46.87;22.63;;;-0.80;99.90;;;;;;5066016;27;20036;-76
2023/12/02 04:43:00;;;;;;;48.40;21.93;;;-0.90;99.90;;;;;;5057331;27;20513;-80
2023/12/02 04:45:26;;;;;;;42.50;19.33;;;-0.90;99.90;;;;;;5078188;28;20032;-80
2023/12/02 04:47:52;;;;;;;39.37;17.93;;;-0.90;99.90;;;;;;5067926;28;20028;-77
2023/12/02 04:50:19;;;;;;;44.00;19.50;;;-0.90;99.90;;;;;;5068368;27;20046;-81
2023/12/02 04:52:45;;;;;;;42.17;20.30;;;-0.90;99.90;;;;;;5068117;28;20046;-76
2023/12/02 04:55:12;;;;;;;44.40;20.40;;;-0.90;99.90;;;;;;5077472;28;20502;-80
2023/12/02 04:57:38;;;;;;;41.90;19.07;;;-0.90;99.90;;;;;;5061777;28;20615;-81
2023/12/02 05:00:14;;;;;;;40.30;18.40;;;-1.00;99.90;;;;;;5075507;28;20036;-80
2023/12/02 05:02:42;;;;;;;40.07;17.83;;;-1.00;99.90;;;;;;5092119;28;20036;-81
2023/12/02 05:05:09;;;;;;;40.27;17.93;;;-1.00;99.90;;;;;;5078880;28;20531;-79
2023/12/02 05:07:36;;;;;;;37.97;16.97;;;-1.00;99.90;;;;;;5079839;28;20036;-78
2023/12/02 05:10:04;;;;;;;40.50;18.17;;;-1.00;99.90;;;;;;5101503;27;20035;-82
2023/12/02 05:12:31;;;;;;;43.47;19.77;;;-1.00;99.90;;;;;;5067128;28;20149;-81
2023/12/02 05:14:58;;;;;;;42.80;18.73;;;-1.00;99.90;;;;;;5082173;28;20600;-79
2023/12/02 05:17:24;;;;;;;40.20;18.17;;;-1.00;99.90;;;;;;5091633;28;20043;-80
2023/12/02 05:19:51;;;;;;;46.13;21.30;;;-1.00;99.90;;;;;;5075260;27;20054;-81
2023/12/02 05:22:17;;;;;;;38.63;18.80;;;-1.00;99.90;;;;;;5065635;28;20032;-80
2023/12/02 05:24:43;;;;;;;41.87;19.33;;;-1.00;99.90;;;;;;5094717;27;20036;-80
2023/12/02 05:27:09;;;;;;;43.37;19.77;;;-0.90;99.90;;;;;;5074183;28;20028;-72
2023/12/02 05:29:36;;;;;;;42.83;20.30;;;-0.90;99.90;;;;;;5063868;28;20043;-82
2023/12/02 05:32:02;;;;;;;43.03;19.77;;;-1.00;99.90;;;;;;5073964;28;20038;-79
2023/12/02 05:34:28;;;;;;;41.00;18.33;;;-0.90;99.90;;;;;;5074323;28;20036;-83
2023/12/02 05:36:55;;;;;;;42.40;18.57;;;-0.90;99.90;;;;;;5077971;28;20363;-79
2023/12/02 05:39:21;;;;;;;46.53;21.57;;;-0.90;99.90;;;;;;5077691;28;20042;-79
2023/12/02 05:41:48;;;;;;;39.27;18.17;;;-0.90;99.90;;;;;;5076001;28;20028;-80
2023/12/02 05:44:14;;;;;;;43.73;20.40;;;-0.90;99.90;;;;;;5077692;28;20028;-78
2023/12/02 05:46:40;;;;;;;44.93;20.43;;;-0.90;99.90;;;;;;5063204;28;20042;-81
2023/12/02 05:49:07;;;;;;;46.23;21.03;;;-0.90;99.90;;;;;;5077709;28;20043;-82
2023/12/02 05:51:38;;;;;;;43.57;20.57;;;-0.90;99.90;;;;;;5077688;28;20542;-83
2023/12/02 05:54:07;;;;;;;39.33;18.20;;;-0.80;99.90;;;;;;5064096;28;20039;-79
2023/12/02 05:56:34;;;;;;;42.83;19.13;;;-0.80;99.90;;;;;;5088023;28;20041;-75
2023/12/02 05:59:00;;;;;;;40.13;18.03;;;-0.80;99.90;;;;;;5076791;28;20032;-81
2023/12/02 06:01:26;;;;;;;44.77;19.60;;;-0.80;99.90;;;;;;5093585;28;20043;-78
2023/12/02 06:03:53;;;;;;;42.50;20.00;;;-0.70;99.90;;;;;;5078997;28;20039;-79
2023/12/02 06:06:19;;;;;;;49.67;22.23;;;-0.70;99.90;;;;;;5084830;28;20047;-78
2023/12/02 06:08:45;;;;;;;48.97;21.30;;;-0.70;99.90;;;;;;5067886;28;20036;-81
2023/12/02 06:11:12;;;;;;;47.20;20.03;;;-0.70;99.90;;;;;;5077496;28;20441;-81
2023/12/02 06:13:39;;;;;;;46.50;21.20;;;-0.70;99.90;;;;;;5094134;28;20051;-80
2023/12/02 06:16:05;;;;;;;46.47;20.03;;;-0.70;99.90;;;;;;5092765;28;20031;-80
2023/12/02 06:18:32;;;;;;;42.07;20.73;;;-0.70;99.90;;;;;;5069907;28;20040;-82
2023/12/02 06:20:59;;;;;;;44.43;21.47;;;-0.80;99.90;;;;;;5074711;28;20036;-77
2023/12/02 06:23:25;;;;;;;45.87;20.83;;;-0.80;99.90;;;;;;5111929;27;20024;-80
2023/12/02 06:25:51;;;;;;;42.07;19.80;;;-0.80;99.90;;;;;;5068194;28;20032;-82
2023/12/02 06:28:18;;;;;;;40.70;19.37;;;-0.90;99.90;;;;;;5079800;28;20035;-82
2023/12/02 06:30:44;;;;;;;43.13;19.93;;;-0.90;99.90;;;;;;5095930;28;20039;-77
2023/12/02 06:33:11;;;;;;;42.63;19.43;;;-0.90;99.90;;;;;;5066128;28;20068;-80
2023/12/02 06:35:37;;;;;;;42.13;18.63;;;-0.90;99.90;;;;;;5075732;28;20043;-78
2023/12/02 06:38:03;;;;;;;46.33;20.70;;;-1.00;99.90;;;;;;5064581;28;20020;-80
2023/12/02 06:40:29;;;;;;;39.43;17.63;;;-1.00;99.90;;;;;;5080589;28;20028;-81
2023/12/02 06:42:56;;;;;;;45.63;20.87;;;-1.00;99.90;;;;;;5062997;28;20044;-82
2023/12/02 06:45:22;;;;;;;43.83;21.20;;;-1.10;99.90;;;;;;5111770;27;20034;-75
2023/12/02 06:47:48;;;;;;;44.63;19.53;;;-1.10;99.90;;;;;;5059782;28;20441;-82
2023/12/02 06:50:15;;;;;;;48.93;22.93;;;-1.10;99.90;;;;;;5065656;28;20032;-82
2023/12/02 06:52:41;;;;;;;46.67;20.97;;;-1.10;99.90;;;;;;5060770;28;20043;-79
2023/12/02 06:55:11;;;;;;;44.17;19.80;;;-1.00;99.90;;;;;;5068110;28;20040;-76
2023/12/02 06:57:37;;;;;;;48.73;20.23;;;-1.00;99.90;;;;;;5100123;27;20532;-82
2023/12/02 07:00:05;;;;;;;47.10;21.00;;;-0.90;99.90;;;;;;5101820;27;20040;-76
2023/12/02 07:02:32;;;;;;;46.10;20.67;;;-0.90;99.90;;;;;;5080820;28;20028;-82
2023/12/02 07:04:58;;;;;;;47.23;21.93;;;-0.80;99.90;;;;;;5070254;27;20054;-82
2023/12/02 07:07:24;;;;;;;47.40;20.90;;;-0.80;99.90;;;;;;5053035;27;20035;-82
2023/12/02 07:09:51;;;;;;;51.00;22.53;;;-0.70;99.90;;;;;;5081146;27;20040;-80
2023/12/02 07:12:17;;;;;;;43.90;19.30;;;-0.70;99.90;;;;;;5087229;27;20036;-80
2023/12/02 07:14:44;;;;;;;46.07;21.07;;;-0.70;99.90;;;;;;5072562;27;20039;-77
2023/12/02 07:17:10;;;;;;;48.47;22.07;;;-0.70;99.90;;;;;;5099296;27;20533;-79
2023/12/02 07:19:36;;;;;;;45.93;19.97;;;-0.60;99.90;;;;;;5101831;27;20036;-78
2023/12/02 07:22:03;;;;;;;50.70;21.23;;;-0.60;99.90;;;;;;5081109;27;20043;-80
2023/12/02 07:24:29;;;;;;;47.13;20.73;;;-0.60;99.90;;;;;;5084176;28;20620;-79
2023/12/02 07:26:56;;;;;;;43.40;19.60;;;-0.50;99.90;;;;;;5060507;28;20746;-78
2023/12/02 07:29:22;;;;;;;48.50;21.60;;;-0.50;99.90;;;;;;5067999;27;20042;-80
2023/12/02 07:31:48;;;;;;;52.40;21.67;;;-0.50;99.90;;;;;;5080044;27;20032;-79
2023/12/02 07:34:15;;;;;;;47.93;20.30;;;-0.40;99.90;;;;;;5080810;27;20047;-80
2023/12/02 07:36:41;;;;;;;50.37;22.90;;;-0.40;99.90;;;;;;5086685;27;20042;-80
2023/12/02 07:39:07;;;;;;;54.07;24.07;;;-0.40;99.90;;;;;;5065037;27;20042;-82
2023/12/02 07:41:33;;;;;;;49.23;22.70;;;-0.40;99.90;;;;;;5088527;27;20043;-82
2023/12/02 07:44:00;;;;;;;48.87;22.10;;;-0.40;99.90;;;;;;5054515;27;20040;-83
2023/12/02 07:46:27;;;;;;;54.00;24.73;;;-0.40;99.90;;;;;;5078560;27;20035;-78
2023/12/02 07:48:53;;;;;;;49.93;23.27;;;-0.40;99.90;;;;;;5086461;27;20031;-78
2023/12/02 07:51:19;;;;;;;54.17;26.00;;;-0.40;99.90;;;;;;5078741;27;20032;-79
2023/12/02 07:53:46;;;;;;;63.33;29.33;;;-0.40;99.90;;;;;;5052013;28;20043;-77
2023/12/02 07:56:12;;;;;;;57.43;26.27;;;-0.40;99.90;;;;;;5100956;27;20470;-77
2023/12/02 07:58:38;;;;;;;48.37;23.63;;;-0.40;99.90;;;;;;5085503;27;20042;-77
2023/12/02 08:01:05;;;;;;;50.40;23.10;;;-0.40;99.90;;;;;;5072784;27;20047;-78
2023/12/02 08:03:31;;;;;;;47.67;22.97;;;-0.30;99.90;;;;;;5085008;27;20035;-78
2023/12/02 08:05:58;;;;;;;56.83;27.33;;;-0.30;99.90;;;;;;5114153;27;20035;-81
2023/12/02 08:08:24;;;;;;;52.27;25.47;;;-0.30;99.90;;;;;;5081655;27;20036;-80
2023/12/02 08:10:51;;;;;;;55.43;27.30;;;-0.30;99.90;;;;;;5083414;27;20023;-73
2023/12/02 08:13:19;;;;;;;46.37;23.53;;;-0.40;99.90;;;;;;5091448;27;20035;-78
2023/12/02 08:15:45;;;;;;;49.50;23.53;;;-0.40;99.90;;;;;;5085357;27;20031;-83
2023/12/02 08:18:11;;;;;;;46.93;23.77;;;-0.40;99.90;;;;;;5081347;27;20593;-77
2023/12/02 08:20:38;;;;;;;43.57;21.53;;;-0.30;99.90;;;;;;5080341;27;20036;-79
2023/12/02 08:23:04;;;;;;;54.57;26.23;;;-0.30;99.90;;;;;;5054456;27;20038;-79
2023/12/02 08:25:30;;;;;;;66.17;28.17;;;-0.30;99.90;;;;;;5079652;27;20371;-77
2023/12/02 08:27:57;;;;;;;51.97;24.20;;;-0.30;99.90;;;;;;5098495;27;20027;-78
2023/12/02 08:30:24;;;;;;;49.27;23.90;;;-0.30;99.90;;;;;;5082646;28;20036;-75
2023/12/02 08:32:50;;;;;;;52.30;24.70;;;-0.20;99.90;;;;;;5081646;27;20406;-73
2023/12/02 08:35:17;;;;;;;46.47;24.03;;;-0.30;99.90;;;;;;5067477;27;20042;-77
2023/12/02 08:37:43;;;;;;;52.50;25.17;;;-0.20;99.90;;;;;;5114407;27;20042;-76
2023/12/02 08:40:10;;;;;;;50.37;24.07;;;-0.10;99.90;;;;;;5053402;27;20040;-77
2023/12/02 08:42:36;;;;;;;51.83;25.07;;;-0.10;99.90;;;;;;5079609;27;20035;-81
2023/12/02 08:45:03;;;;;;;51.13;25.10;;;0.00;99.90;;;;;;5085856;28;20490;-80
2023/12/02 08:47:29;;;;;;;47.13;23.63;;;0.10;99.90;;;;;;5061009;27;20039;-79
2023/12/02 08:49:55;;;;;;;51.43;25.53;;;0.20;99.90;;;;;;5097938;27;20413;-83
2023/12/02 08:52:22;;;;;;;50.80;25.90;;;0.20;99.90;;;;;;5099678;27;20046;-83
2023/12/02 08:54:48;;;;;;;56.47;27.43;;;0.30;99.90;;;;;;5080370;27;20036;-80
2023/12/02 08:57:15;;;;;;;56.40;27.97;;;0.40;99.90;;;;;;5076760;28;20442;-80
2023/12/02 08:59:41;;;;;;;55.30;26.53;;;0.40;99.90;;;;;;5067338;27;20259;-80
2023/12/02 09:02:08;;;;;;;55.03;27.60;;;0.50;99.90;;;;;;5068223;28;20357;-82
2023/12/02 09:04:35;;;;;;;50.73;26.10;;;0.50;99.90;;;;;;5078409;28;20040;-73
2023/12/02 09:07:02;;;;;;;52.17;25.80;;;0.60;99.90;;;;;;5064989;27;20049;-80
2023/12/02 09:09:29;;;;;;;45.73;23.27;;;0.60;99.90;;;;;;5088029;27;20057;-75
2023/12/02 09:11:56;;;;;;;49.40;23.87;;;0.70;99.90;;;;;;5080245;27;20066;-78
2023/12/02 09:14:22;;;;;;;44.70;23.57;;;0.80;99.90;;;;;;5068843;27;20388;-79
2023/12/02 09:16:50;;;;;;;46.60;23.07;;;0.80;99.90;;;;;;5085319;28;20039;-75
2023/12/02 09:19:50;;;;;;;44.13;23.10;;;0.80;99.90;;;;;;5102384;27;20034;-72
2023/12/02 09:22:48;;;;;;;47.40;25.57;;;0.70;99.90;;;;;;5087236;28;20046;-77
2023/12/02 09:25:41;;;;;;;44.90;23.27;;;0.60;99.90;;;;;;5061087;27;20513;-72
2023/12/02 09:28:07;;;;;;;41.67;22.50;;;0.60;99.90;;;;;;5066115;27;20039;-74
2023/12/02 09:30:39;;;;;;;44.40;24.10;;;0.60;99.90;;;;;;5119603;27;20023;-77
2023/12/02 09:33:06;;;;;;;48.05;25.40;;;0.60;99.90;;;;;;5078773;28;21225;-77
2023/12/02 09:35:34;;;;;;;45.47;25.07;;;0.70;99.90;;;;;;5076739;27;20031;-80
2023/12/02 09:38:01;;;;;;;44.97;25.50;;;0.70;99.90;;;;;;5100288;27;20028;-79
2023/12/02 09:40:33;;;;;;;47.67;24.33;;;0.80;99.90;;;;;;5098333;27;20036;-79
2023/12/02 09:43:34;;;;;;;47.00;23.95;;;0.90;99.90;;;;;;5079842;28;20048;-77
2023/12/02 09:46:19;;;;;;;41.10;23.43;;;1.10;99.90;;;;;;5066356;28;20032;-80
2023/12/02 09:49:06;;;;;;;38.63;21.77;;;1.30;99.90;;;;;;5097169;27;20051;-79
2023/12/02 09:51:50;;;;;;;35.00;20.33;;;1.50;99.90;;;;;;5065177;28;20453;-77
2023/12/02 09:54:47;;;;;;;35.27;20.93;;;1.80;99.90;;;;;;5081603;28;20039;-77
2023/12/02 09:57:49;;;;;;;36.40;21.48;;;2.20;99.90;;;;;;5092203;28;20027;-75
2023/12/02 10:00:45;;;;;;;40.30;23.95;;;2.70;99.90;;;;;;5067456;28;20059;-78
2023/12/02 10:03:38;;;;;;;34.30;21.77;;;3.10;99.90;;;;;;5083218;28;20089;-80
2023/12/02 10:06:20;;;;;;;33.88;22.20;;;3.50;99.90;;;;;;5070834;28;20036;-79
2023/12/02 10:09:13;;;;;;;34.33;23.30;;;3.90;99.90;;;;;;5082809;28;20028;-78
2023/12/02 10:11:58;;;;;;;35.08;21.98;;;4.20;99.90;;;;;;5098740;28;20043;-76
2023/12/02 10:14:26;;;;;;;37.80;23.90;;;4.50;99.90;;;;;;5071686;28;20032;-77
2023/12/02 10:16:53;;;;;;;36.95;24.10;;;4.60;99.90;;;;;;5051542;28;20478;-78
2023/12/02 10:19:36;;;;;;;39.05;25.05;;;4.50;99.90;;;;;;5097922;28;20031;-78
2023/12/02 10:22:05;;;;;;;41.15;25.83;;;4.30;99.90;;;;;;5069783;28;20051;-75
2023/12/02 10:24:43;;;;;;;40.65;25.40;;;4.10;99.90;;;;;;5077095;28;20482;-79
2023/12/02 10:27:17;;;;;;;44.25;28.10;;;3.80;99.90;;;;;;5097607;27;20060;-77
2023/12/02 10:30:10;;;;;;;41.22;25.08;;;3.60;99.90;;;;;;5118226;27;20047;-81
2023/12/02 10:32:49;;;;;;;45.13;26.63;;;3.40;99.90;;;;;;5070287;27;20040;-76
2023/12/02 10:35:30;;;;;;;42.13;25.88;;;3.30;99.90;;;;;;5095368;27;20027;-80
2023/12/02 10:38:45;;;;;;;41.25;26.08;;;3.20;99.90;;;;;;5076541;27;20046;-82
2023/12/02 10:41:25;;;;;;;46.50;26.85;;;3.10;99.90;;;;;;5086592;27;20047;-76
2023/12/02 10:43:58;;;;;;;44.90;26.45;;;3.00;99.90;;;;;;5077012;27;20409;-78
2023/12/02 10:46:25;;;;;;;46.10;27.40;;;2.90;99.90;;;;;;5089909;27;20027;-81
2023/12/02 10:48:54;;;;;;;40.53;25.65;;;2.90;99.90;;;;;;5064653;27;20042;-80
2023/12/02 10:51:23;;;;;;;47.05;27.98;;;2.80;99.90;;;;;;5105869;27;20038;-79
2023/12/02 10:53:51;;;;;;;47.88;28.63;;;2.70;99.90;;;;;;5084934;27;20040;-81
2023/12/02 10:56:23;;;;;;;43.40;27.45;;;2.70;99.90;;;;;;5090842;27;20054;-76
2023/12/02 10:58:51;;;;;;;47.15;27.20;;;2.60;99.90;;;;;;5092174;27;20051;-80
2023/12/02 11:01:24;;;;;;;46.22;27.58;;;2.60;99.90;;;;;;5060620;27;20043;-80
2023/12/02 11:03:55;;;;;;;45.38;26.00;;;2.50;99.90;;;;;;5091910;27;20040;-74
2023/12/02 11:06:57;;;;;;;44.47;26.85;;;2.50;99.90;;;;;;5124503;27;20036;-79
2023/12/02 11:09:41;;;;;;;46.33;26.80;;;2.50;99.90;;;;;;5045720;27;20054;-79
2023/12/02 11:12:14;;;;;;;51.85;29.95;;;2.40;99.90;;;;;;5073340;27;20304;-78
2023/12/02 11:14:41;;;;;;;49.65;29.05;;;2.40;99.90;;;;;;5061085;27;20393;-77
2023/12/02 11:17:14;;;;;;;53.92;31.42;;;2.40;99.90;;;;;;5085171;28;20052;-74
2023/12/02 11:20:08;;;;;;;56.80;31.80;;;2.40;99.90;;;;;;5085352;27;20760;-78
2023/12/02 11:23:00;;;;;;;55.33;30.75;;;2.50;99.90;;;;;;5087025;27;20042;-76
2023/12/02 11:25:45;;;;;;;52.38;28.88;;;2.50;99.90;;;;;;5081883;27;20813;-76
2023/12/02 11:28:31;;;;;;;50.13;27.60;;;2.50;99.90;;;;;;5086157;27;20032;-77
2023/12/02 11:31:15;;;;;;;46.53;27.05;;;2.50;99.90;;;;;;5102909;27;20415;-75
2023/12/02 11:34:20;;;;;;;50.77;28.00;;;2.40;99.90;;;;;;5085780;27;20046;-78
2023/12/02 11:37:10;;;;;;;50.78;28.05;;;2.50;99.90;;;;;;5072096;27;20046;-77
2023/12/02 11:39:59;;;;;;;52.28;28.80;;;2.50;99.90;;;;;;5079915;27;20042;-80
2023/12/02 11:42:34;;;;;;;54.85;30.77;;;2.70;99.90;;;;;;5086320;27;20040;-80
2023/12/02 11:45:19;;;;;;;54.15;28.48;;;2.70;99.90;;;;;;5089511;27;20040;-75
2023/12/02 11:48:07;;;;;;;51.50;28.00;;;2.70;99.90;;;;;;5069012;27;20039;-80
2023/12/02 11:50:58;;;;;;;53.00;28.40;;;2.80;99.90;;;;;;5098032;27;20096;-79
2023/12/02 11:54:09;;;;;;;52.07;28.13;;;2.80;99.90;;;;;;5077390;27;20117;-79
2023/12/02 11:56:43;;;;;;;50.50;27.67;;;2.80;99.90;;;;;;5100941;27;20031;-79
2023/12/02 11:59:16;;;;;;;52.20;29.23;;;2.80;99.90;;;;;;5081717;27;20402;-81
2023/12/02 12:01:54;;;;;;;55.58;29.02;;;2.80;99.90;;;;;;5062849;28;20040;-74
2023/12/02 12:04:23;;;;;;;55.25;30.73;;;2.70;99.90;;;;;;5100216;27;20031;-82
2023/12/02 12:07:18;;;;;;;55.37;29.23;;;2.80;99.90;;;;;;5101657;27;20722;-80
2023/12/02 12:10:07;;;;;;;49.00;26.42;;;2.80;99.90;;;;;;5066745;27;20066;-80
2023/12/02 12:12:38;;;;;;;50.28;27.48;;;2.80;99.90;;;;;;5062577;27;20051;-74
2023/12/02 12:15:05;;;;;;;51.10;28.98;;;2.80;99.90;;;;;;5099266;27;20036;-78
2023/12/02 12:17:32;;;;;;;47.15;25.35;;;2.90;99.90;;;;;;5101553;27;20031;-80
2023/12/02 12:19:59;;;;;;;51.03;28.48;;;2.90;99.90;;;;;;5082475;28;20047;-79
2023/12/02 12:22:26;;;;;;;52.92;28.33;;;2.90;99.90;;;;;;5082569;27;20031;-80
2023/12/02 12:24:53;;;;;;;46.50;25.90;;;2.90;99.90;;;;;;5066279;27;20117;-80
2023/12/02 12:27:19;;;;;;;51.72;28.35;;;2.90;99.90;;;;;;5101861;27;20027;-76
2023/12/02 12:29:53;;;;;;;49.63;28.15;;;2.90;99.90;;;;;;5098331;27;20035;-73
2023/12/02 12:32:20;;;;;;;53.45;27.65;;;2.90;99.90;;;;;;5081250;27;20529;-76
2023/12/02 12:34:48;;;;;;;49.33;26.27;;;2.80;99.90;;;;;;5054173;27;20394;-81
2023/12/02 12:37:16;;;;;;;51.10;27.07;;;2.90;99.90;;;;;;5097289;27;20024;-75
2023/12/02 12:39:47;;;;;;;53.67;29.53;;;2.90;99.90;;;;;;5065120;27;20522;-76
2023/12/02 12:42:19;;;;;;;54.63;30.63;;;2.90;99.90;;;;;;5073632;28;20510;-76
2023/12/02 12:44:46;;;;;;;55.20;30.70;;;2.90;99.90;;;;;;5066779;28;20386;-78